<?xml version="1.0" encoding="UTF-8" standalone="no" ?>
<gpx xmlns="http://www.topografix.com/GPX/1/1" xmlns:xsi="http://www.w3.org/2001/XMLSchema-instance" xsi:schemaLocation="http://www.topografix.com/GPX/1/1 http://www.topografix.com/GPX/1/1/gpx.xsd" version="1.1" creator="VisuGPX - https://www.visugpx.com">
  <metadata>
    <name>Trail coteaux</name>
    <desc><![CDATA[trail dans coteaux Pechbusque]]></desc>
  </metadata>
  <trk>
    <name><![CDATA[Sequence 2]]></name>
    <trkseg>
      <trkpt lat="43.52362" lon="1.45511">
        <ele>228</ele>
        <time>2016-02-24T08:55:34Z</time>
      </trkpt>
      <trkpt lat="43.52443" lon="1.45498">
        <ele>255</ele>
        <time>2016-02-24T08:56:20Z</time>
      </trkpt>
      <trkpt lat="43.52444" lon="1.45508">
        <ele>232</ele>
        <time>2016-02-24T08:56:32Z</time>
      </trkpt>
      <trkpt lat="43.52446" lon="1.4551">
        <ele>232</ele>
        <time>2016-02-24T08:56:33Z</time>
      </trkpt>
      <trkpt lat="43.52463" lon="1.45535">
        <ele>230</ele>
        <time>2016-02-24T08:56:41Z</time>
      </trkpt>
      <trkpt lat="43.52467" lon="1.45561">
        <ele>228</ele>
        <time>2016-02-24T08:56:46Z</time>
      </trkpt>
      <trkpt lat="43.52488" lon="1.45546">
        <ele>224</ele>
        <time>2016-02-24T08:59:17Z</time>
      </trkpt>
      <trkpt lat="43.52521" lon="1.45441">
        <ele>234</ele>
        <time>2016-02-24T09:00:37Z</time>
      </trkpt>
      <trkpt lat="43.52529" lon="1.45381">
        <ele>235</ele>
        <time>2016-02-24T09:00:54Z</time>
      </trkpt>
      <trkpt lat="43.52584" lon="1.45364">
        <ele>227</ele>
        <time>2016-02-24T09:01:22Z</time>
      </trkpt>
      <trkpt lat="43.52587" lon="1.45373">
        <ele>226</ele>
        <time>2016-02-24T09:01:24Z</time>
      </trkpt>
      <trkpt lat="43.52595" lon="1.4539">
        <ele>226</ele>
        <time>2016-02-24T09:01:29Z</time>
      </trkpt>
      <trkpt lat="43.52618" lon="1.45437">
        <ele>230</ele>
        <time>2016-02-24T09:01:40Z</time>
      </trkpt>
      <trkpt lat="43.5263" lon="1.45451">
        <ele>229</ele>
        <time>2016-02-24T09:01:45Z</time>
      </trkpt>
      <trkpt lat="43.52632" lon="1.45445">
        <ele>228</ele>
        <time>2016-02-24T09:01:47Z</time>
      </trkpt>
      <trkpt lat="43.52643" lon="1.45409">
        <ele>226</ele>
        <time>2016-02-24T09:01:57Z</time>
      </trkpt>
      <trkpt lat="43.52645" lon="1.45403">
        <ele>225</ele>
        <time>2016-02-24T09:01:59Z</time>
      </trkpt>
      <trkpt lat="43.52676" lon="1.45376">
        <ele>222</ele>
        <time>2016-02-24T09:02:10Z</time>
      </trkpt>
      <trkpt lat="43.52691" lon="1.45365">
        <ele>220</ele>
        <time>2016-02-24T09:02:15Z</time>
      </trkpt>
      <trkpt lat="43.52696" lon="1.45358">
        <ele>224</ele>
        <time>2016-02-24T09:02:17Z</time>
      </trkpt>
      <trkpt lat="43.52706" lon="1.45338">
        <ele>229</ele>
        <time>2016-02-24T09:02:23Z</time>
      </trkpt>
      <trkpt lat="43.52717" lon="1.4531">
        <ele>227</ele>
        <time>2016-02-24T09:02:32Z</time>
      </trkpt>
      <trkpt lat="43.52749" lon="1.45295">
        <ele>226</ele>
        <time>2016-02-24T09:02:40Z</time>
      </trkpt>
      <trkpt lat="43.52749" lon="1.45293">
        <ele>226</ele>
        <time>2016-02-24T09:02:41Z</time>
      </trkpt>
      <trkpt lat="43.52751" lon="1.45269">
        <ele>225</ele>
        <time>2016-02-24T09:02:48Z</time>
      </trkpt>
      <trkpt lat="43.52757" lon="1.4525">
        <ele>229</ele>
        <time>2016-02-24T09:02:53Z</time>
      </trkpt>
      <trkpt lat="43.52768" lon="1.45233">
        <ele>235</ele>
        <time>2016-02-24T09:02:59Z</time>
      </trkpt>
    </trkseg>
  </trk>
</gpx>